Euro Spirit — ELUW8 — position and weather

sailwx.info

Track history (hours):
 
Tides and Currents Weather Stations Pressure Air Temp Water Temp Dewpoint Dewpoint Depression Visibility Wind Speed Wind Dir Waves Ship Positions

Euro Spirit

Last reported at 2017-Sep-22 01:15 UTC. Time now 2017-Sep-22 09:48 UTC.
Position N 34°15' W 076°06'.

Length 188 m; beam 31.2 m.

Type: Cargo ship. MMSI: 636010789.

Date/timePositionNaut miles runAvg speedWind from/ knotsBaromVisibWave heightAir tempDewpointWater temp
2017-Sep-22 01:15N 34°15' W 076°06'412.4
2017-Sep-22 00:58N 34°13' W 076°09'612.6
2017-Sep-22 00:30N 34°09' W 076°14'712.6
2017-Sep-21 23:59N 34°04' W 076°19'612.3
2017-Sep-21 23:30N 34°00' W 076°25'612.4
2017-Sep-21 22:59N 33°56' W 076°30'2212.7
2017-Sep-21 21:17N 33°41' W 076°49'21212.2
2017-Sep-21 03:49N 31°25' W 080°03'412.3
2017-Sep-21 03:27N 31°23' W 080°07'612.5
2017-Sep-21 03:00N 31°20' W 080°13'1712.8
2017-Sep-21 01:38N 31°13' W 080°32'512.9
2017-Sep-21 01:16N 31°11' W 080°37'412.8
2017-Sep-21 00:58N 31°09' W 080°40'612.5
2017-Sep-21 00:30N 31°06' W 080°47'812.6
2017-Sep-20 23:52N 31°04' W 080°56'512.6
2017-Sep-20 23:30N 31°03' W 081°01'1011.9
2017-Sep-20 22:37N 31°02' W 081°13'1 7.7
2017-Sep-20 22:26N 31°02' W 081°14'4 9.8
2017-Sep-20 22:00N 31°05' W 081°18'12 1.5
2017-Sep-20 13:58N 31°08' W 081°32'0 0.0
2017-Sep-20 13:22N 31°08' W 081°32'0 0.0
2017-Sep-20 12:52N 31°08' W 081°32'0 0.0
2017-Sep-20 12:16N 31°08' W 081°32'0 0.0
2017-Sep-20 11:58N 31°08' W 081°32'0 0.0
2017-Sep-20 11:28N 31°08' W 081°32'0 0.0
2017-Sep-20 10:58N 31°08' W 081°32'0 0.0
2017-Sep-20 10:28N 31°08' W 081°32'0 0.0
2017-Sep-20 08:34N 31°08' W 081°32'0 0.0
2017-Sep-20 08:22N 31°08' W 081°32'0 0.2
2017-Sep-20 08:00N 31°08' W 081°32'3 4.8
2017-Sep-20 07:19N 31°07' W 081°28'5 9.6
2017-Sep-20 06:48N 31°07' W 081°23'310.2
2017-Sep-20 06:30N 31°06' W 081°20'6 9.9
2017-Sep-20 05:52N 31°02' W 081°14'3 7.8
2017-Sep-20 05:30N 31°00' W 081°11'5 7.6
2017-Sep-20 04:50N 30°58' W 081°06'2 7.5
2017-Sep-20 04:30N 30°58' W 081°03'510.3
2017-Sep-20 04:00N 30°56' W 080°57'2 3.7
2017-Sep-20 03:30N 30°56' W 080°55'6 9.8
2017-Sep-20 02:56N 30°51' W 080°51'612.4
2017-Sep-20 02:29N 30°46' W 080°51'612.5
2017-Sep-20 01:59N 30°40' W 080°51'1112.5
2017-Sep-20 01:06N 30°29' W 080°51'37 2.1
2017-Sep-19 07:36N 30°23' W 081°33'29 8.7
2017-Sep-19 04:18N 30°21' W 081°00'513.6
2017-Sep-19 03:54N 30°20' W 080°54'513.5
2017-Sep-19 03:31N 30°19' W 080°48'285 7.5
2017-Sep-17 13:32N 25°42' W 079°31'514.5
2017-Sep-17 13:12N 25°38' W 079°33'  
2017-Sep-14 08:34N 19°16' W 095°38'112.5
2017-Sep-14 08:27N 19°15' W 095°39'612.8
2017-Sep-14 08:00N 19°12' W 095°44'713.1
2017-Sep-14 07:30N 19°12' W 095°51'613.0
2017-Sep-14 07:00N 19°12' W 095°57'612.1
2017-Sep-14 06:30N 19°11' W 096°04'4 7.3
2017-Sep-14 06:00N 19°12' W 096°07'1 1.6
2017-Sep-14 05:29N 19°13' W 096°08'0 0.0
2017-Sep-14 04:59N 19°13' W 096°08'0 0.0
2017-Sep-14 04:29N 19°13' W 096°08'0 0.0
2017-Sep-14 03:59N 19°13' W 096°08'0 0.0
2017-Sep-14 03:24N 19°13' W 096°08'0 0.0
2017-Sep-14 02:58N 19°13' W 096°08'0 0.0
2017-Sep-14 02:28N 19°13' W 096°08'0 0.0
2017-Sep-14 01:58N 19°13' W 096°08'0 0.0
2017-Sep-14 01:28N 19°13' W 096°08'0 0.0
2017-Sep-14 00:58N 19°13' W 096°08'0 0.0
2017-Sep-14 00:28N 19°13' W 096°08'0 0.0
2017-Sep-13 23:58N 19°13' W 096°08'0 0.0
2017-Sep-13 23:28N 19°13' W 096°08'0 0.0
2017-Sep-13 22:58N 19°13' W 096°08'0 0.0
2017-Sep-13 22:28N 19°13' W 096°08'0 0.0
2017-Sep-13 21:58N 19°13' W 096°08'0 0.0
2017-Sep-13 21:28N 19°13' W 096°08'0 0.0
2017-Sep-13 20:58N 19°13' W 096°08'0 0.0
2017-Sep-13 20:28N 19°13' W 096°08'0 0.0
2017-Sep-13 19:58N 19°13' W 096°08'0 0.0
2017-Sep-13 19:28N 19°13' W 096°08'0 0.0
2017-Sep-13 18:55N 19°13' W 096°08'0 0.0
2017-Sep-13 18:28N 19°13' W 096°08'0 0.0
2017-Sep-13 17:58N 19°13' W 096°08'0 0.0
2017-Sep-13 17:28N 19°13' W 096°08'0 0.0
2017-Sep-13 16:55N 19°13' W 096°08'0 0.0
2017-Sep-13 16:28N 19°13' W 096°08'0 0.0
2017-Sep-13 15:58N 19°13' W 096°08'0 0.0
2017-Sep-13 15:22N 19°13' W 096°08'0 0.0
2017-Sep-13 14:58N 19°13' W 096°08'0 0.0
2017-Sep-13 14:28N 19°13' W 096°08'0 0.0
2017-Sep-13 13:58N 19°13' W 096°08'0 0.0
2017-Sep-13 13:28N 19°13' W 096°08'0 0.0
2017-Sep-13 12:58N 19°13' W 096°08'0 0.0
2017-Sep-13 12:28N 19°13' W 096°08'0 0.0
2017-Sep-13 11:58N 19°13' W 096°08'0 0.0
2017-Sep-13 11:28N 19°13' W 096°08'0 0.0
2017-Sep-13 10:58N 19°13' W 096°08'0 0.0
2017-Sep-13 10:28N 19°13' W 096°08'0 0.0
2017-Sep-13 09:58N 19°13' W 096°08'0 0.0
2017-Sep-13 09:28N 19°13' W 096°08'0 0.0
2017-Sep-13 08:58N 19°13' W 096°08'0 0.0
2017-Sep-13 08:28N 19°13' W 096°08'0 0.0
2017-Sep-13 07:58N 19°13' W 096°08'0 0.0
2017-Sep-13 07:28N 19°13' W 096°08'0 0.0
2017-Sep-13 06:58N 19°13' W 096°08'0 0.0
2017-Sep-13 06:28N 19°13' W 096°08'0 0.0
2017-Sep-13 05:58N 19°13' W 096°08'0 0.0
2017-Sep-13 05:28N 19°13' W 096°08'0 0.0
2017-Sep-13 04:58N 19°13' W 096°08'0 0.0
2017-Sep-13 04:28N 19°13' W 096°08'0 0.0
2017-Sep-13 03:58N 19°13' W 096°08'0 0.0
2017-Sep-13 03:28N 19°13' W 096°08'0 0.0
2017-Sep-13 02:58N 19°13' W 096°08'0 0.0
2017-Sep-13 02:28N 19°13' W 096°08'0 0.0
2017-Sep-13 01:58N 19°13' W 096°08'0 0.0
2017-Sep-13 01:25N 19°13' W 096°08'0 0.0
2017-Sep-13 00:58N 19°13' W 096°08'0 0.0
2017-Sep-13 00:28N 19°13' W 096°08'0 0.0
2017-Sep-12 23:58N 19°13' W 096°08'0 0.0
2017-Sep-12 23:28N 19°13' W 096°08'0 0.0
2017-Sep-12 22:58N 19°13' W 096°08'0 0.0
2017-Sep-12 22:28N 19°13' W 096°08'0 0.0
2017-Sep-12 21:58N 19°13' W 096°08'0 0.0
2017-Sep-12 21:28N 19°13' W 096°08'0 0.0
2017-Sep-12 20:58N 19°13' W 096°08'0 0.0
2017-Sep-12 20:28N 19°13' W 096°08'0 0.0
2017-Sep-12 19:58N 19°13' W 096°08'0 0.0
2017-Sep-12 19:28N 19°13' W 096°08'0 0.0
2017-Sep-12 18:58N 19°13' W 096°08'0 0.0
2017-Sep-12 18:28N 19°13' W 096°08'0 0.0
2017-Sep-12 17:58N 19°13' W 096°08'0 0.0
2017-Sep-12 17:28N 19°13' W 096°08'0 0.0
2017-Sep-12 16:58N 19°13' W 096°08'0 0.0
2017-Sep-12 16:28N 19°13' W 096°08'0 0.0
2017-Sep-12 15:58N 19°13' W 096°08'0 0.0
2017-Sep-12 15:28N 19°13' W 096°08'0 0.0
2017-Sep-12 14:58N 19°13' W 096°08'0 0.0
2017-Sep-12 14:28N 19°13' W 096°08'0 0.0
2017-Sep-12 13:55N 19°13' W 096°08'0 0.0
2017-Sep-12 13:28N 19°13' W 096°08'0 1.0
2017-Sep-12 13:00N 19°12' W 096°08'4 8.2
2017-Sep-12 12:30N 19°11' W 096°04'4 7.7
2017-Sep-12 12:00N 19°13' W 096°00'4 8.5
2017-Sep-12 11:30N 19°18' W 096°00'713.9
2017-Sep-12 11:00N 19°24' W 096°01'2 4.7
2017-Sep-12 10:31N 19°27' W 096°02'1 1.8
2017-Sep-12 10:00N 19°28' W 096°02'1 1.7
2017-Sep-12 09:31N 19°28' W 096°02'1 1.8
2017-Sep-12 09:00N 19°29' W 096°01'1 2.0
2017-Sep-12 08:30N 19°30' W 096°01'1 2.1
2017-Sep-12 08:00N 19°31' W 096°01'1 2.0
2017-Sep-12 07:30N 19°32' W 096°00'1 2.1
2017-Sep-12 07:00N 19°33' W 095°60'1 2.1
2017-Sep-12 06:31N 19°34' W 095°60'1 2.0
2017-Sep-12 06:00N 19°35' W 095°59'1 2.2
2017-Sep-12 05:31N 19°36' W 095°59'1 2.4
2017-Sep-12 05:00N 19°37' W 095°58'3 2.4
2017-Sep-12 03:37N 19°40' W 095°57'0 2.1
2017-Sep-12 03:30N 19°41' W 095°57'7 8.2
2017-Sep-12 02:37N 19°34' W 095°55'214.8
2017-Sep-12 02:30N 19°32' W 095°54'714.7
2017-Sep-12 02:00N 19°26' W 095°50'611.2
2017-Sep-12 01:30N 19°21' W 095°48'  
Track history (hours):
 
Tides and Currents Weather Stations Pressure Air Temp Water Temp Dewpoint Dewpoint Depression Visibility Wind Speed Wind Dir Waves Ship Positions

Euro Spirit

Last reported at 2017-Sep-22 01:15 UTC. Time now 2017-Sep-22 09:48 UTC.
Position N 34°15' W 076°06'.

Length 188 m; beam 31.2 m.

Type: Cargo ship. MMSI: 636010789.

Date/timePositionNaut miles runAvg speedWind from/ knotsBaromVisibWave heightAir tempDewpointWater temp
2017-Sep-22 01:15N 34°15' W 076°06'412.4
2017-Sep-22 00:58N 34°13' W 076°09'612.6
2017-Sep-22 00:30N 34°09' W 076°14'712.6
2017-Sep-21 23:59N 34°04' W 076°19'612.3
2017-Sep-21 23:30N 34°00' W 076°25'612.4
2017-Sep-21 22:59N 33°56' W 076°30'2212.7
2017-Sep-21 21:17N 33°41' W 076°49'21212.2
2017-Sep-21 03:49N 31°25' W 080°03'412.3
2017-Sep-21 03:27N 31°23' W 080°07'612.5
2017-Sep-21 03:00N 31°20' W 080°13'1712.8
2017-Sep-21 01:38N 31°13' W 080°32'512.9
2017-Sep-21 01:16N 31°11' W 080°37'412.8
2017-Sep-21 00:58N 31°09' W 080°40'612.5
2017-Sep-21 00:30N 31°06' W 080°47'812.6
2017-Sep-20 23:52N 31°04' W 080°56'512.6
2017-Sep-20 23:30N 31°03' W 081°01'1011.9
2017-Sep-20 22:37N 31°02' W 081°13'1 7.7
2017-Sep-20 22:26N 31°02' W 081°14'4 9.8
2017-Sep-20 22:00N 31°05' W 081°18'12 1.5
2017-Sep-20 13:58N 31°08' W 081°32'0 0.0
2017-Sep-20 13:22N 31°08' W 081°32'0 0.0
2017-Sep-20 12:52N 31°08' W 081°32'0 0.0
2017-Sep-20 12:16N 31°08' W 081°32'0 0.0
2017-Sep-20 11:58N 31°08' W 081°32'0 0.0
2017-Sep-20 11:28N 31°08' W 081°32'0 0.0
2017-Sep-20 10:58N 31°08' W 081°32'0 0.0
2017-Sep-20 10:28N 31°08' W 081°32'0 0.0
2017-Sep-20 08:34N 31°08' W 081°32'0 0.0
2017-Sep-20 08:22N 31°08' W 081°32'0 0.2
2017-Sep-20 08:00N 31°08' W 081°32'3 4.8
2017-Sep-20 07:19N 31°07' W 081°28'5 9.6
2017-Sep-20 06:48N 31°07' W 081°23'310.2
2017-Sep-20 06:30N 31°06' W 081°20'6 9.9
2017-Sep-20 05:52N 31°02' W 081°14'3 7.8
2017-Sep-20 05:30N 31°00' W 081°11'5 7.6
2017-Sep-20 04:50N 30°58' W 081°06'2 7.5
2017-Sep-20 04:30N 30°58' W 081°03'510.3
2017-Sep-20 04:00N 30°56' W 080°57'2 3.7
2017-Sep-20 03:30N 30°56' W 080°55'6 9.8
2017-Sep-20 02:56N 30°51' W 080°51'612.4
2017-Sep-20 02:29N 30°46' W 080°51'612.5
2017-Sep-20 01:59N 30°40' W 080°51'1112.5
2017-Sep-20 01:06N 30°29' W 080°51'37 2.1
2017-Sep-19 07:36N 30°23' W 081°33'29 8.7
2017-Sep-19 04:18N 30°21' W 081°00'513.6
2017-Sep-19 03:54N 30°20' W 080°54'513.5
2017-Sep-19 03:31N 30°19' W 080°48'285 7.5
2017-Sep-17 13:32N 25°42' W 079°31'514.5
2017-Sep-17 13:12N 25°38' W 079°33'  
2017-Sep-14 08:34N 19°16' W 095°38'112.5
2017-Sep-14 08:27N 19°15' W 095°39'612.8
2017-Sep-14 08:00N 19°12' W 095°44'713.1
2017-Sep-14 07:30N 19°12' W 095°51'613.0
2017-Sep-14 07:00N 19°12' W 095°57'612.1
2017-Sep-14 06:30N 19°11' W 096°04'4 7.3
2017-Sep-14 06:00N 19°12' W 096°07'1 1.6
2017-Sep-14 05:29N 19°13' W 096°08'0 0.0
2017-Sep-14 04:59N 19°13' W 096°08'0 0.0
2017-Sep-14 04:29N 19°13' W 096°08'0 0.0
2017-Sep-14 03:59N 19°13' W 096°08'0 0.0
2017-Sep-14 03:24N 19°13' W 096°08'0 0.0
2017-Sep-14 02:58N 19°13' W 096°08'0 0.0
2017-Sep-14 02:28N 19°13' W 096°08'0 0.0
2017-Sep-14 01:58N 19°13' W 096°08'0 0.0
2017-Sep-14 01:28N 19°13' W 096°08'0 0.0
2017-Sep-14 00:58N 19°13' W 096°08'0 0.0
2017-Sep-14 00:28N 19°13' W 096°08'0 0.0
2017-Sep-13 23:58N 19°13' W 096°08'0 0.0
2017-Sep-13 23:28N 19°13' W 096°08'0 0.0
2017-Sep-13 22:58N 19°13' W 096°08'0 0.0
2017-Sep-13 22:28N 19°13' W 096°08'0 0.0
2017-Sep-13 21:58N 19°13' W 096°08'0 0.0
2017-Sep-13 21:28N 19°13' W 096°08'0 0.0
2017-Sep-13 20:58N 19°13' W 096°08'0 0.0
2017-Sep-13 20:28N 19°13' W 096°08'0 0.0
2017-Sep-13 19:58N 19°13' W 096°08'0 0.0
2017-Sep-13 19:28N 19°13' W 096°08'0 0.0
2017-Sep-13 18:55N 19°13' W 096°08'0 0.0
2017-Sep-13 18:28N 19°13' W 096°08'0 0.0
2017-Sep-13 17:58N 19°13' W 096°08'0 0.0
2017-Sep-13 17:28N 19°13' W 096°08'0 0.0
2017-Sep-13 16:55N 19°13' W 096°08'0 0.0
2017-Sep-13 16:28N 19°13' W 096°08'0 0.0
2017-Sep-13 15:58N 19°13' W 096°08'0 0.0
2017-Sep-13 15:22N 19°13' W 096°08'0 0.0
2017-Sep-13 14:58N 19°13' W 096°08'0 0.0
2017-Sep-13 14:28N 19°13' W 096°08'0 0.0
2017-Sep-13 13:58N 19°13' W 096°08'0 0.0
2017-Sep-13 13:28N 19°13' W 096°08'0 0.0
2017-Sep-13 12:58N 19°13' W 096°08'0 0.0
2017-Sep-13 12:28N 19°13' W 096°08'0 0.0
2017-Sep-13 11:58N 19°13' W 096°08'0 0.0
2017-Sep-13 11:28N 19°13' W 096°08'0 0.0
2017-Sep-13 10:58N 19°13' W 096°08'0 0.0
2017-Sep-13 10:28N 19°13' W 096°08'0 0.0
2017-Sep-13 09:58N 19°13' W 096°08'0 0.0
2017-Sep-13 09:28N 19°13' W 096°08'0 0.0
2017-Sep-13 08:58N 19°13' W 096°08'0 0.0
2017-Sep-13 08:28N 19°13' W 096°08'0 0.0
2017-Sep-13 07:58N 19°13' W 096°08'0 0.0
2017-Sep-13 07:28N 19°13' W 096°08'0 0.0
2017-Sep-13 06:58N 19°13' W 096°08'0 0.0
2017-Sep-13 06:28N 19°13' W 096°08'0 0.0
2017-Sep-13 05:58N 19°13' W 096°08'0 0.0
2017-Sep-13 05:28N 19°13' W 096°08'0 0.0
2017-Sep-13 04:58N 19°13' W 096°08'0 0.0
2017-Sep-13 04:28N 19°13' W 096°08'0 0.0
2017-Sep-13 03:58N 19°13' W 096°08'0 0.0
2017-Sep-13 03:28N 19°13' W 096°08'0 0.0
2017-Sep-13 02:58N 19°13' W 096°08'0 0.0
2017-Sep-13 02:28N 19°13' W 096°08'0 0.0
2017-Sep-13 01:58N 19°13' W 096°08'0 0.0
2017-Sep-13 01:25N 19°13' W 096°08'0 0.0
2017-Sep-13 00:58N 19°13' W 096°08'0 0.0
2017-Sep-13 00:28N 19°13' W 096°08'0 0.0
2017-Sep-12 23:58N 19°13' W 096°08'0 0.0
2017-Sep-12 23:28N 19°13' W 096°08'0 0.0
2017-Sep-12 22:58N 19°13' W 096°08'0 0.0
2017-Sep-12 22:28N 19°13' W 096°08'0 0.0
2017-Sep-12 21:58N 19°13' W 096°08'0 0.0
2017-Sep-12 21:28N 19°13' W 096°08'0 0.0
2017-Sep-12 20:58N 19°13' W 096°08'0 0.0
2017-Sep-12 20:28N 19°13' W 096°08'0 0.0
2017-Sep-12 19:58N 19°13' W 096°08'0 0.0
2017-Sep-12 19:28N 19°13' W 096°08'0 0.0
2017-Sep-12 18:58N 19°13' W 096°08'0 0.0
2017-Sep-12 18:28N 19°13' W 096°08'0 0.0
2017-Sep-12 17:58N 19°13' W 096°08'0 0.0
2017-Sep-12 17:28N 19°13' W 096°08'0 0.0
2017-Sep-12 16:58N 19°13' W 096°08'0 0.0
2017-Sep-12 16:28N 19°13' W 096°08'0 0.0
2017-Sep-12 15:58N 19°13' W 096°08'0 0.0
2017-Sep-12 15:28N 19°13' W 096°08'0 0.0
2017-Sep-12 14:58N 19°13' W 096°08'0 0.0
2017-Sep-12 14:28N 19°13' W 096°08'0 0.0
2017-Sep-12 13:55N 19°13' W 096°08'0 0.0
2017-Sep-12 13:28N 19°13' W 096°08'0 1.0
2017-Sep-12 13:00N 19°12' W 096°08'4 8.2
2017-Sep-12 12:30N 19°11' W 096°04'4 7.7
2017-Sep-12 12:00N 19°13' W 096°00'4 8.5
2017-Sep-12 11:30N 19°18' W 096°00'713.9
2017-Sep-12 11:00N 19°24' W 096°01'2 4.7
2017-Sep-12 10:31N 19°27' W 096°02'1 1.8
2017-Sep-12 10:00N 19°28' W 096°02'1 1.7
2017-Sep-12 09:31N 19°28' W 096°02'1 1.8
2017-Sep-12 09:00N 19°29' W 096°01'1 2.0
2017-Sep-12 08:30N 19°30' W 096°01'1 2.1
2017-Sep-12 08:00N 19°31' W 096°01'1 2.0
2017-Sep-12 07:30N 19°32' W 096°00'1 2.1
2017-Sep-12 07:00N 19°33' W 095°60'1 2.1
2017-Sep-12 06:31N 19°34' W 095°60'1 2.0
2017-Sep-12 06:00N 19°35' W 095°59'1 2.2
2017-Sep-12 05:31N 19°36' W 095°59'1 2.4
2017-Sep-12 05:00N 19°37' W 095°58'3 2.4
2017-Sep-12 03:37N 19°40' W 095°57'0 2.1
2017-Sep-12 03:30N 19°41' W 095°57'7 8.2
2017-Sep-12 02:37N 19°34' W 095°55'214.8
2017-Sep-12 02:30N 19°32' W 095°54'714.7
2017-Sep-12 02:00N 19°26' W 095°50'611.2
2017-Sep-12 01:30N 19°21' W 095°48'  

Dump ship's entire track history